Time;durP1;ratioP1;P1;durP2;ratioP2;P2;SDS_P1;SDS_P2;PMS_P1;PMS_P2;Temp;Humidity;BMP_temperature;BMP_pressure;BME280_temperature;BME280_humidity;BME280_pressure;Samples;Min_cycle;Max_cycle;Signal;HPM_P1;HPM_P2
2021/10/14 00:00:57;;;;;;;3.40;2.45;;;7.10;99.90;;;;;;5013601;28;20030;-50
2021/10/14 00:03:23;;;;;;;5.35;2.30;;;7.20;99.90;;;;;;4996064;28;20060;-49
2021/10/14 00:05:48;;;;;;;5.30;2.60;;;7.20;99.90;;;;;;5013624;28;20026;-53
2021/10/14 00:08:14;;;;;;;3.60;2.72;;;7.20;99.90;;;;;;5013672;28;20477;-53
2021/10/14 00:10:39;;;;;;;3.50;2.60;;;7.20;99.90;;;;;;5013512;28;20034;-53
2021/10/14 00:13:05;;;;;;;5.22;2.63;;;7.20;99.90;;;;;;5012218;28;20148;-50
2021/10/14 00:15:31;;;;;;;4.57;2.70;;;7.20;99.90;;;;;;5013436;28;20034;-52
2021/10/14 00:18:00;;;;;;;3.45;2.40;;;7.20;99.90;;;;;;5013442;28;20034;-52
2021/10/14 00:20:26;;;;;;;4.28;2.42;;;7.20;99.90;;;;;;5013312;28;20034;-51
2021/10/14 00:22:52;;;;;;;4.80;2.40;;;7.30;99.90;;;;;;5013362;28;20018;-54
2021/10/14 00:25:19;;;;;;;4.40;2.10;;;7.30;99.90;;;;;;5013312;28;20026;-52
2021/10/14 00:27:46;;;;;;;5.43;2.25;;;7.30;99.90;;;;;;5011838;28;20013;-52
2021/10/14 00:30:12;;;;;;;6.60;2.35;;;7.30;99.90;;;;;;4995973;28;20393;-52
2021/10/14 00:32:37;;;;;;;4.05;2.20;;;7.30;99.90;;;;;;5013292;28;20081;-48
2021/10/14 00:35:03;;;;;;;4.47;2.40;;;7.40;99.90;;;;;;5013125;28;20501;-55
2021/10/14 00:37:29;;;;;;;3.50;2.20;;;7.40;99.90;;;;;;5013116;28;20026;-49
2021/10/14 00:39:54;;;;;;;5.05;2.20;;;7.40;99.90;;;;;;5013092;28;20040;-54
2021/10/14 00:42:20;;;;;;;3.22;1.90;;;7.40;99.90;;;;;;4994166;28;20033;-52
2021/10/14 00:44:47;;;;;;;4.05;2.28;;;7.40;99.90;;;;;;5013073;28;20156;-52
2021/10/14 00:47:21;;;;;;;2.45;1.95;;;7.40;99.90;;;;;;5012990;28;20025;-50
2021/10/14 00:49:47;;;;;;;4.68;2.28;;;7.40;99.90;;;;;;5012161;28;20030;-49
2021/10/14 00:52:14;;;;;;;5.65;2.22;;;7.50;99.90;;;;;;5013072;28;20056;-51
2021/10/14 00:54:40;;;;;;;5.40;2.42;;;7.50;99.90;;;;;;5012929;28;20026;-53
2021/10/14 00:57:05;;;;;;;4.32;2.65;;;7.50;99.90;;;;;;5011650;28;20057;-49
2021/10/14 00:59:31;;;;;;;3.88;3.08;;;7.50;99.90;;;;;;5012910;28;20540;-50
2021/10/14 01:01:57;;;;;;;6.60;2.67;;;7.50;99.90;;;;;;5012913;28;20022;-55
2021/10/14 01:04:23;;;;;;;4.85;2.63;;;7.50;99.90;;;;;;5012917;28;20489;-51
2021/10/14 01:06:48;;;;;;;7.72;2.78;;;7.50;99.90;;;;;;5012841;28;20026;-52
2021/10/14 01:09:14;;;;;;;6.15;2.42;;;7.50;99.90;;;;;;5012885;28;20029;-52
2021/10/14 01:11:40;;;;;;;3.88;2.40;;;7.50;99.90;;;;;;5012764;28;20109;-49
2021/10/14 01:14:05;;;;;;;5.07;2.67;;;7.60;99.90;;;;;;5011571;28;20029;-53
2021/10/14 01:16:40;;;;;;;2.95;2.08;;;7.60;99.90;;;;;;5012852;28;20031;-50
2021/10/14 01:19:06;;;;;;;6.35;2.80;;;7.60;99.90;;;;;;5012832;28;20429;-49
2021/10/14 01:21:32;;;;;;;3.50;2.28;;;7.60;99.90;;;;;;5012690;28;20174;-48
2021/10/14 01:24:02;;;;;;;6.88;2.33;;;7.60;99.90;;;;;;5012548;28;20032;-51
2021/10/14 01:26:28;;;;;;;4.30;2.47;;;7.60;99.90;;;;;;5012690;28;20021;-48
2021/10/14 01:28:54;;;;;;;4.38;2.70;;;7.60;99.90;;;;;;5011309;28;20076;-53
2021/10/14 01:31:23;;;;;;;4.95;2.42;;;7.70;99.90;;;;;;5012689;28;20048;-48
2021/10/14 01:33:49;;;;;;;6.22;2.47;;;7.70;99.90;;;;;;5012559;28;20030;-50
2021/10/14 01:36:15;;;;;;;5.25;2.60;;;7.70;99.90;;;;;;5012520;28;20052;-52
2021/10/14 01:38:40;;;;;;;3.45;2.20;;;7.70;99.90;;;;;;5012465;28;20116;-51
2021/10/14 01:41:06;;;;;;;3.80;2.50;;;7.70;99.90;;;;;;5012580;28;20026;-52
2021/10/14 01:43:33;;;;;;;5.03;2.45;;;7.80;99.90;;;;;;5011299;28;20509;-54
2021/10/14 01:45:59;;;;;;;5.72;2.30;;;7.80;99.90;;;;;;5012483;28;20040;-53
2021/10/14 01:48:24;;;;;;;5.78;2.42;;;7.80;99.90;;;;;;5012552;28;20030;-49
2021/10/14 01:50:50;;;;;;;5.60;2.65;;;7.80;99.90;;;;;;5012448;28;20041;-53
2021/10/14 01:53:15;;;;;;;3.17;1.92;;;7.80;99.90;;;;;;5012427;28;20076;-50
2021/10/14 01:55:41;;;;;;;4.53;2.58;;;7.80;99.90;;;;;;5012476;28;20033;-51
2021/10/14 01:58:07;;;;;;;5.30;2.55;;;7.80;99.90;;;;;;5011107;28;20045;-52
2021/10/14 02:00:32;;;;;;;3.83;1.90;;;7.90;99.90;;;;;;5012453;28;20026;-49
2021/10/14 02:02:58;;;;;;;4.97;2.72;;;7.90;99.90;;;;;;5015848;28;20026;-51
2021/10/14 02:05:23;;;;;;;3.15;2.45;;;7.90;99.90;;;;;;5015903;28;20385;-55
2021/10/14 02:07:49;;;;;;;4.93;2.30;;;7.90;99.90;;;;;;5015664;28;20457;-52
2021/10/14 02:10:14;;;;;;;3.67;2.35;;;7.90;99.90;;;;;;4998219;28;20109;-52
2021/10/14 02:12:40;;;;;;;8.85;2.75;;;7.90;99.90;;;;;;5014466;28;20030;-54
2021/10/14 02:15:06;;;;;;;4.25;2.75;;;8.00;99.90;;;;;;5015638;28;20243;-53
2021/10/14 02:17:32;;;;;;;7.03;3.00;;;8.00;99.90;;;;;;5015637;28;20033;-52
2021/10/14 02:19:57;;;;;;;6.28;2.42;;;8.00;99.90;;;;;;5015480;28;20033;-54
2021/10/14 02:22:22;;;;;;;6.15;2.55;;;8.00;99.90;;;;;;5015465;28;20076;-49
2021/10/14 02:24:48;;;;;;;4.53;2.30;;;8.00;99.90;;;;;;5015426;28;20065;-51
2021/10/14 02:27:13;;;;;;;6.05;2.58;;;8.00;99.90;;;;;;5014114;28;20049;-53
2021/10/14 02:29:39;;;;;;;4.45;2.38;;;8.00;99.90;;;;;;5015443;28;20022;-53
2021/10/14 02:32:05;;;;;;;3.70;2.72;;;8.10;99.90;;;;;;5015286;28;20481;-50
2021/10/14 02:34:30;;;;;;;4.25;2.25;;;8.10;99.90;;;;;;5015131;28;20045;-51
2021/10/14 02:36:56;;;;;;;6.55;2.85;;;8.10;99.90;;;;;;5015109;28;20109;-51
2021/10/14 02:39:22;;;;;;;4.65;3.08;;;8.10;99.90;;;;;;5015211;28;20040;-50
2021/10/14 02:41:47;;;;;;;6.50;3.63;;;8.20;99.90;;;;;;5015072;28;20030;-52
2021/10/14 02:44:13;;;;;;;6.60;3.03;;;8.20;99.90;;;;;;5013834;28;20033;-53
2021/10/14 02:46:38;;;;;;;4.97;3.00;;;8.20;99.90;;;;;;5015006;28;20379;-53
2021/10/14 02:49:04;;;;;;;5.60;2.78;;;8.20;99.90;;;;;;5015026;28;20122;-53
2021/10/14 02:51:29;;;;;;;6.05;2.83;;;8.20;99.90;;;;;;5015184;28;20105;-55
2021/10/14 02:53:55;;;;;;;6.80;2.80;;;8.20;99.90;;;;;;5014725;28;20037;-50
2021/10/14 02:56:20;;;;;;;7.68;3.33;;;8.30;99.90;;;;;;5014878;28;20450;-51
2021/10/14 02:58:46;;;;;;;7.63;3.03;;;8.30;99.90;;;;;;5013495;28;20108;-54
2021/10/14 03:01:11;;;;;;;8.20;3.28;;;8.30;99.90;;;;;;5014613;28;20513;-53
2021/10/14 03:03:37;;;;;;;5.57;2.95;;;8.30;99.90;;;;;;5014829;28;20022;-52
2021/10/14 03:06:02;;;;;;;8.75;3.22;;;8.30;99.90;;;;;;5014774;28;20034;-48
2021/10/14 03:08:28;;;;;;;7.70;3.47;;;8.30;99.90;;;;;;4997001;28;20036;-51
2021/10/14 03:10:54;;;;;;;7.95;3.45;;;8.40;99.90;;;;;;5014539;28;20034;-53
2021/10/14 03:13:20;;;;;;;5.28;3.25;;;8.40;99.90;;;;;;5012805;28;20424;-50
2021/10/14 03:15:45;;;;;;;7.00;3.95;;;8.40;99.90;;;;;;5014547;28;20038;-51
2021/10/14 03:18:11;;;;;;;9.80;4.20;;;8.40;99.90;;;;;;5014479;28;20064;-52
2021/10/14 03:20:36;;;;;;;5.45;3.53;;;8.50;99.90;;;;;;5014376;28;20034;-53
2021/10/14 03:23:02;;;;;;;7.07;4.00;;;8.50;99.90;;;;;;5014293;28;20054;-49
2021/10/14 03:25:27;;;;;;;5.97;3.78;;;8.50;99.90;;;;;;5014347;28;20469;-51
2021/10/14 03:27:53;;;;;;;4.57;3.05;;;8.50;99.90;;;;;;5012942;28;20033;-50
2021/10/14 03:30:18;;;;;;;5.43;3.25;;;8.50;99.90;;;;;;5014262;28;20037;-50
2021/10/14 03:32:44;;;;;;;9.45;4.30;;;8.50;99.90;;;;;;5014241;28;20357;-49
2021/10/14 03:35:09;;;;;;;5.57;3.70;;;8.60;99.90;;;;;;5014033;28;20365;-55
2021/10/14 03:37:35;;;;;;;9.35;3.85;;;8.60;99.90;;;;;;5014003;28;20049;-51
2021/10/14 03:40:00;;;;;;;8.98;3.97;;;8.60;99.90;;;;;;5013982;28;20377;-51
2021/10/14 03:42:27;;;;;;;7.72;3.70;;;8.60;99.90;;;;;;5012781;28;20493;-48
2021/10/14 03:44:53;;;;;;;7.50;4.07;;;8.70;99.90;;;;;;5014007;28;20064;-53
2021/10/14 03:47:18;;;;;;;6.70;3.58;;;8.70;99.90;;;;;;5013940;28;20106;-48
2021/10/14 03:49:44;;;;;;;5.80;3.40;;;8.70;99.90;;;;;;5013915;28;20068;-54
2021/10/14 03:52:09;;;;;;;6.93;4.38;;;8.70;99.90;;;;;;5013795;28;20025;-52
2021/10/14 03:54:35;;;;;;;8.50;3.67;;;8.70;99.90;;;;;;5013812;28;20064;-50
2021/10/14 03:57:00;;;;;;;6.93;4.30;;;8.70;99.90;;;;;;5012504;28;20394;-54
2021/10/14 03:59:26;;;;;;;8.90;4.55;;;8.70;99.90;;;;;;5013770;28;20036;-51
2021/10/14 04:01:51;;;;;;;7.75;3.70;;;8.80;99.90;;;;;;5013600;28;20113;-51
2021/10/14 04:04:16;;;;;;;14.43;5.13;;;8.80;99.90;;;;;;5013674;28;20053;-47
2021/10/14 04:06:42;;;;;;;6.10;3.90;;;8.80;99.90;;;;;;5013593;28;20412;-49
2021/10/14 04:09:07;;;;;;;8.85;4.32;;;8.80;99.90;;;;;;5013579;28;20030;-51
2021/10/14 04:11:33;;;;;;;7.32;3.83;;;8.90;99.90;;;;;;5013571;28;20057;-50
2021/10/14 04:13:58;;;;;;;9.52;4.72;;;8.90;99.90;;;;;;5012194;28;20061;-51
2021/10/14 04:16:24;;;;;;;9.25;4.20;;;8.90;99.90;;;;;;5013471;28;20385;-50
2021/10/14 04:18:49;;;;;;;7.15;3.90;;;8.90;99.90;;;;;;5013450;28;20071;-51
2021/10/14 04:21:15;;;;;;;6.20;3.55;;;8.90;99.90;;;;;;5013246;28;20420;-49
2021/10/14 04:23:43;;;;;;;7.53;3.53;;;8.90;99.90;;;;;;5013186;28;20021;-52
2021/10/14 04:26:09;;;;;;;5.60;3.65;;;8.90;99.90;;;;;;5013243;28;20406;-52
2021/10/14 04:28:35;;;;;;;5.28;3.17;;;8.90;99.90;;;;;;5012016;28;20474;-51
2021/10/14 04:31:01;;;;;;;6.53;3.33;;;8.90;99.90;;;;;;5013308;28;20057;-55
2021/10/14 04:33:29;;;;;;;4.57;3.42;;;8.90;99.90;;;;;;5013360;28;20029;-51
2021/10/14 04:35:55;;;;;;;7.57;3.30;;;8.90;99.90;;;;;;5013013;28;20129;-54
2021/10/14 04:38:20;;;;;;;5.63;3.42;;;8.90;99.90;;;;;;5013247;28;20141;-51
2021/10/14 04:40:46;;;;;;;7.43;3.30;;;8.90;99.90;;;;;;5013097;28;20508;-51
2021/10/14 04:43:11;;;;;;;6.60;3.40;;;8.90;99.90;;;;;;5011832;28;20075;-50
2021/10/14 04:45:37;;;;;;;5.65;3.65;;;8.90;99.90;;;;;;5013155;28;20503;-53
2021/10/14 04:48:02;;;;;;;6.70;3.65;;;8.90;99.90;;;;;;5013059;28;20030;-51
2021/10/14 04:50:28;;;;;;;7.45;3.85;;;8.90;99.90;;;;;;5013069;28;20038;-52
2021/10/14 04:52:53;;;;;;;5.07;3.38;;;8.90;99.90;;;;;;5013042;28;20021;-51
2021/10/14 04:55:19;;;;;;;8.60;3.08;;;8.90;99.90;;;;;;5013006;28;20452;-51
2021/10/14 04:57:44;;;;;;;4.90;3.42;;;9.00;99.90;;;;;;5011722;28;20030;-55
2021/10/14 05:00:10;;;;;;;6.20;3.42;;;9.00;99.90;;;;;;5012897;28;20053;-52
2021/10/14 05:02:36;;;;;;;4.97;3.85;;;9.00;99.90;;;;;;5012981;28;20030;-51
2021/10/14 05:05:01;;;;;;;6.97;3.08;;;9.00;99.90;;;;;;5012849;28;20359;-48
2021/10/14 05:07:27;;;;;;;6.57;3.00;;;9.00;99.90;;;;;;5012928;28;20061;-51
2021/10/14 05:09:52;;;;;;;5.50;3.90;;;9.00;99.90;;;;;;5012908;28;20077;-53
2021/10/14 05:12:20;;;;;;;6.93;4.32;;;9.00;99.90;;;;;;5011512;28;20026;-51
2021/10/14 05:14:45;;;;;;;6.45;3.20;;;9.00;99.90;;;;;;5012960;28;20029;-52
2021/10/14 05:17:11;;;;;;;5.70;3.65;;;9.00;99.90;;;;;;5012849;28;20026;-50
2021/10/14 05:19:36;;;;;;;4.95;3.45;;;9.00;99.90;;;;;;5012731;28;20381;-53
2021/10/14 05:22:02;;;;;;;7.03;4.50;;;9.00;99.90;;;;;;5012718;28;20137;-52
2021/10/14 05:24:28;;;;;;;5.78;3.67;;;9.00;99.90;;;;;;5012718;28;20370;-53
2021/10/14 05:26:53;;;;;;;5.53;3.83;;;9.00;99.90;;;;;;4994339;28;20161;-51
2021/10/14 05:29:18;;;;;;;4.65;3.20;;;9.00;99.90;;;;;;4994669;28;20025;-52
2021/10/14 05:31:44;;;;;;;5.95;3.72;;;9.00;99.90;;;;;;5012675;28;20525;-51
2021/10/14 05:34:09;;;;;;;5.05;2.88;;;9.00;99.90;;;;;;5012502;28;20036;-49
2021/10/14 05:36:35;;;;;;;4.43;3.15;;;9.00;99.90;;;;;;5014212;28;20033;-54
2021/10/14 05:39:00;;;;;;;3.63;2.90;;;9.00;99.90;;;;;;5016417;28;20109;-51
2021/10/14 05:41:26;;;;;;;3.50;2.72;;;9.00;99.90;;;;;;5016267;28;20080;-49
2021/10/14 05:43:51;;;;;;;3.20;2.55;;;9.00;99.90;;;;;;5015011;28;20440;-52
2021/10/14 05:46:17;;;;;;;5.47;4.03;;;9.10;99.90;;;;;;5016180;28;20026;-52
2021/10/14 05:48:42;;;;;;;3.78;2.65;;;9.10;99.90;;;;;;5016211;28;20034;-53
2021/10/14 05:51:08;;;;;;;2.97;2.42;;;9.10;99.90;;;;;;5016011;28;20030;-50
2021/10/14 05:53:33;;;;;;;3.47;2.90;;;9.10;99.90;;;;;;5016100;28;20174;-54
2021/10/14 05:55:59;;;;;;;3.38;2.42;;;9.10;99.90;;;;;;5016061;28;20034;-49
2021/10/14 05:58:24;;;;;;;2.90;2.30;;;9.10;99.90;;;;;;5014663;28;20060;-45
2021/10/14 06:00:50;;;;;;;4.20;2.47;;;9.10;99.90;;;;;;5015920;28;20036;-48
2021/10/14 06:03:15;;;;;;;4.28;2.55;;;9.20;99.90;;;;;;5015861;28;20029;-48
2021/10/14 06:05:41;;;;;;;5.88;3.05;;;9.20;99.90;;;;;;5015777;28;20492;-46
2021/10/14 06:08:06;;;;;;;2.92;2.60;;;9.20;99.90;;;;;;5015890;28;20018;-49
2021/10/14 06:10:32;;;;;;;2.72;2.38;;;9.20;99.90;;;;;;5015813;28;20025;-49
2021/10/14 06:12:57;;;;;;;2.72;2.33;;;9.20;99.90;;;;;;5014533;28;20033;-47
2021/10/14 06:15:23;;;;;;;3.28;2.83;;;9.30;99.90;;;;;;5015613;28;20036;-50
2021/10/14 06:17:48;;;;;;;2.50;2.30;;;9.30;99.90;;;;;;5015728;28;20374;-49
2021/10/14 06:20:14;;;;;;;3.95;2.75;;;9.30;99.90;;;;;;5015379;28;20030;-46
2021/10/14 06:22:39;;;;;;;3.80;2.17;;;9.30;99.90;;;;;;5015564;28;20072;-46
2021/10/14 06:25:05;;;;;;;4.65;3.40;;;9.40;99.90;;;;;;5015493;28;20049;-48
2021/10/14 06:27:31;;;;;;;4.00;3.33;;;9.40;99.90;;;;;;5014217;28;20041;-47
2021/10/14 06:29:58;;;;;;;3.15;2.30;;;9.40;99.90;;;;;;5015382;28;20070;-50
2021/10/14 06:32:27;;;;;;;3.10;2.53;;;9.50;99.90;;;;;;5015365;28;20018;-50
2021/10/14 06:34:53;;;;;;;3.13;2.42;;;9.50;99.90;;;;;;5015172;28;20077;-49
2021/10/14 06:37:19;;;;;;;4.47;2.88;;;9.60;99.90;;;;;;5015270;28;20014;-53
2021/10/14 06:39:45;;;;;;;3.45;2.65;;;9.60;99.90;;;;;;5015107;28;20029;-46
2021/10/14 06:42:11;;;;;;;2.10;1.90;;;9.60;99.90;;;;;;5013825;28;20491;-48
2021/10/14 06:44:36;;;;;;;3.08;2.55;;;9.70;99.90;;;;;;4997586;28;20026;-48
2021/10/14 06:47:02;;;;;;;2.40;2.17;;;9.70;99.90;;;;;;5014563;28;20104;-50
2021/10/14 06:49:27;;;;;;;3.00;2.53;;;9.70;99.90;;;;;;5014382;28;20516;-47
2021/10/14 06:51:55;;;;;;;3.78;2.45;;;9.80;99.90;;;;;;4997092;28;20038;-50
2021/10/14 06:54:21;;;;;;;2.35;1.90;;;9.80;99.90;;;;;;5015032;28;20113;-45
2021/10/14 06:56:46;;;;;;;3.55;2.20;;;9.80;99.90;;;;;;5014980;28;20045;-52
2021/10/14 06:59:12;;;;;;;2.03;1.83;;;9.80;99.90;;;;;;5013520;28;20038;-50
2021/10/14 07:01:37;;;;;;;3.22;2.50;;;9.90;99.90;;;;;;5014728;28;20473;-52
2021/10/14 07:04:03;;;;;;;2.97;2.25;;;9.90;99.90;;;;;;5014715;28;20033;-51
2021/10/14 07:06:28;;;;;;;3.47;2.05;;;9.90;99.90;;;;;;5014730;28;20097;-50
2021/10/14 07:08:54;;;;;;;3.70;2.70;;;10.00;99.90;;;;;;5014701;28;20018;-49
2021/10/14 07:11:20;;;;;;;4.18;2.90;;;10.00;99.90;;;;;;5014594;28;20106;-46
2021/10/14 07:13:46;;;;;;;3.92;2.78;;;10.00;99.90;;;;;;5013318;28;20037;-50
2021/10/14 07:16:12;;;;;;;3.50;2.15;;;10.00;99.90;;;;;;5014478;28;20026;-48
2021/10/14 07:18:38;;;;;;;4.32;2.35;;;10.10;99.90;;;;;;5014424;28;20105;-51
2021/10/14 07:21:03;;;;;;;2.33;1.83;;;10.20;99.90;;;;;;5014328;28;20032;-50
2021/10/14 07:23:29;;;;;;;2.88;2.35;;;10.10;99.90;;;;;;5014355;28;20034;-51
2021/10/14 07:25:55;;;;;;;2.90;2.25;;;10.20;99.90;;;;;;5014311;28;20064;-48
2021/10/14 07:28:21;;;;;;;6.72;2.60;;;10.20;99.90;;;;;;5012944;28;20029;-50
2021/10/14 07:30:48;;;;;;;2.20;2.00;;;10.20;99.90;;;;;;5014265;28;20112;-46
2021/10/14 07:33:15;;;;;;;2.83;2.42;;;10.20;99.90;;;;;;5014381;28;20037;-49
2021/10/14 07:35:41;;;;;;;2.28;2.08;;;10.30;99.90;;;;;;5014086;28;20054;-51
2021/10/14 07:38:10;;;;;;;4.25;2.55;;;10.30;99.90;;;;;;5014200;28;20045;-47
2021/10/14 07:40:39;;;;;;;3.63;2.67;;;10.30;99.90;;;;;;5014004;28;20030;-44
2021/10/14 07:43:05;;;;;;;9.25;4.53;;;10.30;99.90;;;;;;5012699;28;20469;-48
2021/10/14 07:45:31;;;;;;;6.70;3.97;;;10.40;99.90;;;;;;5013968;28;20026;-50
2021/10/14 07:47:56;;;;;;;7.60;3.92;;;10.40;99.90;;;;;;5013836;28;20418;-48
2021/10/14 07:50:22;;;;;;;6.47;4.05;;;10.50;99.90;;;;;;5013863;28;20104;-46
2021/10/14 07:52:47;;;;;;;7.80;4.65;;;10.50;99.90;;;;;;5013850;28;20030;-51
2021/10/14 07:55:13;;;;;;;7.53;3.85;;;10.50;99.90;;;;;;5013780;28;20489;-47
2021/10/14 07:57:39;;;;;;;9.52;4.63;;;10.60;99.90;;;;;;5012412;28;20064;-51
2021/10/14 08:00:07;;;;;;;6.53;4.45;;;10.70;99.90;;;;;;5013298;28;20030;-51
2021/10/14 08:02:32;;;;;;;5.80;4.13;;;10.70;99.90;;;;;;5013463;28;20029;-47
2021/10/14 08:04:58;;;;;;;5.57;3.97;;;10.80;99.90;;;;;;5013755;28;20025;-50
2021/10/14 08:07:23;;;;;;;7.13;3.30;;;10.80;99.90;;;;;;5013618;28;20048;-48
2021/10/14 08:09:49;;;;;;;4.93;3.47;;;10.90;99.90;;;;;;5013592;28;20030;-49
2021/10/14 08:12:14;;;;;;;3.92;2.80;;;10.90;99.90;;;;;;5012292;28;20033;-49
2021/10/14 08:14:40;;;;;;;4.63;3.20;;;11.00;99.90;;;;;;5013506;28;20110;-50
2021/10/14 08:17:06;;;;;;;4.35;2.80;;;11.00;99.90;;;;;;5013359;28;20034;-51
2021/10/14 08:19:31;;;;;;;3.78;2.75;;;11.10;99.90;;;;;;5013354;28;20037;-50
2021/10/14 08:21:57;;;;;;;2.72;2.25;;;11.10;99.90;;;;;;5013277;28;20026;-52
2021/10/14 08:24:24;;;;;;;3.65;3.00;;;11.20;99.90;;;;;;5013304;28;20104;-50
2021/10/14 08:26:50;;;;;;;3.97;2.63;;;11.20;99.90;;;;;;5012401;28;20466;-53
2021/10/14 08:29:16;;;;;;;3.95;2.97;;;11.30;99.90;;;;;;5013258;28;20040;-53
2021/10/14 08:31:42;;;;;;;3.13;2.63;;;11.30;99.90;;;;;;5013113;28;20021;-49
2021/10/14 08:34:08;;;;;;;5.82;3.72;;;11.40;99.90;;;;;;5013080;28;20034;-49
2021/10/14 08:36:33;;;;;;;9.63;4.68;;;11.40;99.90;;;;;;5013078;28;20561;-52
2021/10/14 08:38:59;;;;;;;10.85;4.95;;;11.40;99.90;;;;;;5013202;28;20029;-47
2021/10/14 08:41:24;;;;;;;9.13;4.28;;;11.50;99.90;;;;;;5013035;28;20474;-46
2021/10/14 08:43:51;;;;;;;6.80;4.20;;;11.50;99.90;;;;;;5011839;28;20030;-47
2021/10/14 08:46:17;;;;;;;7.13;4.05;;;11.60;99.90;;;;;;5013082;28;20062;-51
2021/10/14 08:48:44;;;;;;;3.83;2.95;;;11.60;99.90;;;;;;5013129;28;20018;-51
2021/10/14 08:51:10;;;;;;;3.45;3.15;;;11.60;99.90;;;;;;5013019;28;20033;-47
2021/10/14 08:53:37;;;;;;;5.47;3.75;;;11.60;99.90;;;;;;5012977;28;20033;-49
2021/10/14 08:56:03;;;;;;;4.40;3.53;;;11.60;99.90;;;;;;5012930;28;20022;-53
2021/10/14 08:58:28;;;;;;;4.95;4.20;;;11.70;99.90;;;;;;5011647;28;20172;-48
2021/10/14 09:01:13;;;;;;;6.38;3.83;;;11.60;99.90;;;;;;5012814;28;20034;-49
2021/10/14 09:03:52;;;;;;;5.38;3.45;;;11.70;99.90;;;;;;5012969;28;20504;-47
2021/10/14 09:06:18;;;;;;;3.88;3.15;;;11.70;99.90;;;;;;5012917;28;20032;-51
2021/10/14 09:08:49;;;;;;;5.70;3.72;;;11.70;99.90;;;;;;5012883;28;20018;-47
2021/10/14 09:11:17;;;;;;;5.05;3.90;;;11.70;99.90;;;;;;5014098;28;20473;-49
2021/10/14 09:13:57;;;;;;;4.07;3.45;;;11.70;99.90;;;;;;4997892;28;20075;-48
2021/10/14 09:16:34;;;;;;;7.05;5.05;;;11.70;99.90;;;;;;5016827;28;20481;-51
2021/10/14 09:19:21;;;;;;;7.03;5.00;;;11.70;99.90;;;;;;5016728;28;20121;-53
2021/10/14 09:21:50;;;;;;;4.82;3.90;;;11.70;99.90;;;;;;5016499;28;20096;-49
2021/10/14 09:24:24;;;;;;;6.47;4.32;;;11.70;99.90;;;;;;5016641;28;20041;-47
2021/10/14 09:26:49;;;;;;;5.90;4.65;;;11.70;99.90;;;;;;5015298;28;20053;-48
2021/10/14 09:29:15;;;;;;;6.95;5.28;;;11.70;99.90;;;;;;5016549;28;20028;-50
2021/10/14 09:31:51;;;;;;;7.68;5.32;;;11.80;99.90;;;;;;5016406;28;20030;-51
2021/10/14 09:34:34;;;;;;;5.25;4.35;;;11.80;99.90;;;;;;5016244;28;20080;-46
2021/10/14 09:37:24;;;;;;;7.78;4.85;;;11.80;99.90;;;;;;4998768;28;20029;-48
2021/10/14 09:40:11;;;;;;;7.88;4.57;;;11.90;99.90;;;;;;5015559;28;20050;-48
2021/10/14 09:42:40;;;;;;;6.72;4.53;;;11.90;99.90;;;;;;4997335;28;20370;-51
2021/10/14 09:45:26;;;;;;;6.38;4.72;;;12.00;99.90;;;;;;5016315;28;20031;-49
2021/10/14 09:48:04;;;;;;;4.97;3.67;;;12.10;99.90;;;;;;5016265;28;20026;-48
2021/10/14 09:50:36;;;;;;;7.90;5.68;;;12.20;99.90;;;;;;5016118;28;20260;-50
2021/10/14 09:53:04;;;;;;;9.73;4.93;;;12.20;99.90;;;;;;5016068;28;20022;-48
2021/10/14 09:55:30;;;;;;;6.07;4.65;;;12.30;99.90;;;;;;5016089;28;20056;-49
2021/10/14 09:57:57;;;;;;;7.15;4.40;;;12.30;99.90;;;;;;5014734;28;20030;-54
2021/10/14 10:00:23;;;;;;;5.43;4.10;;;12.30;99.90;;;;;;5015991;28;20022;-49
2021/10/14 10:02:52;;;;;;;5.32;4.03;;;12.30;99.90;;;;;;5015922;28;20040;-52
2021/10/14 10:05:18;;;;;;;7.75;4.53;;;12.30;99.90;;;;;;5016135;28;20018;-46
2021/10/14 10:07:45;;;;;;;5.60;3.75;;;12.30;99.90;;;;;;5015689;28;20014;-49
2021/10/14 10:10:14;;;;;;;7.57;5.43;;;12.40;99.90;;;;;;5015814;28;20424;-50
2021/10/14 10:12:40;;;;;;;7.20;4.80;;;12.40;99.90;;;;;;5014445;28;20033;-49
2021/10/14 10:15:06;;;;;;;5.70;4.50;;;12.40;99.90;;;;;;5016004;28;20038;-52
2021/10/14 10:17:41;;;;;;;6.75;4.88;;;12.40;99.90;;;;;;5015597;28;20094;-53
2021/10/14 10:20:09;;;;;;;6.60;4.43;;;12.40;99.90;;;;;;5015521;28;20414;-53
2021/10/14 10:22:35;;;;;;;5.60;4.40;;;12.50;99.90;;;;;;5015163;28;20061;-49
2021/10/14 10:25:25;;;;;;;6.95;4.80;;;12.50;99.90;;;;;;5015551;28;20076;-53
2021/10/14 10:27:52;;;;;;;7.10;4.75;;;12.50;99.90;;;;;;5014134;28;20117;-52
2021/10/14 10:30:32;;;;;;;7.22;4.60;;;12.60;99.90;;;;;;5015439;28;20029;-52
2021/10/14 10:32:59;;;;;;;6.05;4.68;;;12.70;99.90;;;;;;5015368;28;20559;-54
2021/10/14 10:35:44;;;;;;;5.63;4.30;;;12.80;99.90;;;;;;5015211;28;20065;-48
2021/10/14 10:38:14;;;;;;;6.33;3.87;;;12.80;99.90;;;;;;5015382;28;20040;-54
2021/10/14 10:40:42;;;;;;;6.95;4.30;;;12.80;99.90;;;;;;5015160;28;20108;-50
2021/10/14 10:43:14;;;;;;;5.78;4.13;;;12.90;99.90;;;;;;5013974;28;20025;-54
2021/10/14 10:45:54;;;;;;;6.65;3.85;;;13.00;99.90;;;;;;5014995;28;20469;-48
2021/10/14 10:48:39;;;;;;;3.47;3.05;;;13.00;99.90;;;;;;5015110;28;20041;-52
2021/10/14 10:51:25;;;;;;;4.72;3.75;;;13.10;99.90;;;;;;5015112;28;20080;-48
2021/10/14 10:53:51;;;;;;;6.97;4.50;;;13.10;99.90;;;;;;5014943;28;20037;-51
2021/10/14 10:56:34;;;;;;;3.80;3.22;;;13.10;99.90;;;;;;5014989;28;20041;-51
2021/10/14 10:59:01;;;;;;;3.10;2.80;;;13.20;99.90;;;;;;5013576;28;20105;-48
2021/10/14 11:01:28;;;;;;;3.40;2.78;;;13.30;99.90;;;;;;5014814;28;20107;-48
2021/10/14 11:03:54;;;;;;;3.50;2.75;;;13.40;99.90;;;;;;5014748;28;20033;-47
2021/10/14 11:06:21;;;;;;;3.40;3.00;;;13.40;99.90;;;;;;4997097;28;20028;-48
2021/10/14 11:08:46;;;;;;;2.88;2.38;;;13.40;99.90;;;;;;5014642;28;20053;-50
2021/10/14 11:11:21;;;;;;;4.05;2.50;;;13.50;99.90;;;;;;5014748;28;20425;-51
2021/10/14 11:13:50;;;;;;;3.08;2.08;;;13.50;99.90;;;;;;5013304;28;20389;-53
2021/10/14 11:16:18;;;;;;;2.63;2.17;;;13.50;99.90;;;;;;5014595;28;20622;-51
2021/10/14 11:18:46;;;;;;;2.30;2.10;;;13.50;99.90;;;;;;5014295;28;20064;-47
2021/10/14 11:21:15;;;;;;;2.80;2.25;;;13.60;99.90;;;;;;5014438;28;20026;-49
2021/10/14 11:23:53;;;;;;;2.63;2.05;;;13.60;99.90;;;;;;5014341;28;20408;-50
2021/10/14 11:26:31;;;;;;;1.75;1.50;;;13.70;99.90;;;;;;5014384;28;20026;-51
2021/10/14 11:29:03;;;;;;;1.33;1.13;;;13.70;99.90;;;;;;5012985;28;20081;-51
2021/10/14 11:31:29;;;;;;;1.10;1.00;;;13.70;99.90;;;;;;5014269;28;20422;-51
2021/10/14 11:34:02;;;;;;;1.55;1.30;;;13.70;99.90;;;;;;5013460;28;20081;-51
2021/10/14 11:36:27;;;;;;;1.33;1.13;;;13.70;99.90;;;;;;5013974;28;20556;-51
2021/10/14 11:38:59;;;;;;;1.00;0.90;;;13.70;99.90;;;;;;5014066;28;20034;-49
2021/10/14 11:41:25;;;;;;;0.80;0.80;;;13.80;99.90;;;;;;5013964;28;20038;-52
2021/10/14 11:44:00;;;;;;;1.17;1.08;;;13.80;99.90;;;;;;5011793;28;20025;-50
2021/10/14 11:46:28;;;;;;;0.75;0.70;;;13.90;99.90;;;;;;5013958;28;20057;-49
2021/10/14 11:49:02;;;;;;;0.77;0.70;;;13.90;99.90;;;;;;5013888;28;20033;-50
2021/10/14 11:51:30;;;;;;;0.50;0.50;;;14.00;99.90;;;;;;5013867;28;20026;-52
2021/10/14 11:53:59;;;;;;;0.60;0.60;;;14.10;99.90;;;;;;5013821;28;20021;-52
2021/10/14 11:56:26;;;;;;;0.60;0.60;;;14.10;99.90;;;;;;5013830;28;20299;-52
2021/10/14 11:58:51;;;;;;;0.77;0.77;;;14.10;99.90;;;;;;5012548;28;20473;-51
2021/10/14 12:01:21;;;;;;;0.82;0.80;;;14.10;99.90;;;;;;5013770;28;20149;-54
2021/10/14 12:03:49;;;;;;;1.10;0.57;;;14.10;99.90;;;;;;5013727;28;20026;-52
2021/10/14 12:06:16;;;;;;;0.60;0.50;;;14.10;99.90;;;;;;5013709;28;20018;-52
2021/10/14 12:08:44;;;;;;;0.90;0.60;;;14.00;99.90;;;;;;5013486;28;20026;-54
2021/10/14 12:11:21;;;;;;;0.57;0.57;;;14.00;99.90;;;;;;5013589;28;20029;-49
2021/10/14 12:14:05;;;;;;;0.63;0.52;;;13.90;99.90;;;;;;5012286;28;20041;-54
2021/10/14 12:16:32;;;;;;;0.52;0.50;;;13.80;99.90;;;;;;5013540;28;20034;-52
2021/10/14 12:19:15;;;;;;;0.77;0.50;;;13.80;99.90;;;;;;5013435;28;20040;-51
2021/10/14 12:21:42;;;;;;;0.47;0.47;;;13.70;99.90;;;;;;5013328;28;20499;-50
2021/10/14 12:24:23;;;;;;;0.80;0.63;;;13.70;99.90;;;;;;5013507;28;20026;-53
2021/10/14 12:26:54;;;;;;;0.93;0.70;;;13.70;99.90;;;;;;5012123;28;20053;-51
2021/10/14 12:29:46;;;;;;;0.57;0.50;;;13.70;99.90;;;;;;5013472;28;20030;-54
2021/10/14 12:32:17;;;;;;;1.33;0.70;;;13.70;99.90;;;;;;5009777;28;20030;-54
2021/10/14 12:34:51;;;;;;;1.00;0.52;;;13.60;99.90;;;;;;5013101;28;20046;-53
2021/10/14 12:37:22;;;;;;;0.80;0.60;;;13.60;99.90;;;;;;5013234;28;20025;-50
2021/10/14 12:39:48;;;;;;;1.02;0.82;;;13.50;99.90;;;;;;5013190;28;20022;-49
2021/10/14 12:42:17;;;;;;;0.93;0.68;;;13.50;99.90;;;;;;5011764;28;20477;-49
2021/10/14 12:44:57;;;;;;;2.63;0.90;;;13.40;99.90;;;;;;5013114;28;20014;-51
2021/10/14 12:47:44;;;;;;;0.82;0.80;;;13.40;99.90;;;;;;5013176;28;20029;-51
2021/10/14 12:53:14;;;;;;;1.30;1.20;;;13.30;99.90;;;;;;5013021;28;20149;-51
2021/10/14 12:55:56;;;;;;;1.10;1.00;;;13.30;99.90;;;;;;5013088;28;20101;-54
2021/10/14 12:58:22;;;;;;;3.75;1.10;;;13.30;99.90;;;;;;5011738;28;20037;-53